Time,TemperatureF,DewpointF,PressureIn,WindDirection,WindDirectionDegrees,WindSpeedMPH,WindSpeedGustMPH,Humidity,HourlyPrecipIn,Conditions,Clouds,dailyrainin,SoftwareType,DateUTC
2014-08-28 00:01:00,81.4,76.1,29.98,East,81,1.1,1.1,84,0.00,CLR,,0.00,WeatherDisplay:10.37,2014-08-28 04:01:00,
2014-08-28 00:02:00,81.4,76.1,29.98,East,90,1.1,1.1,84,0.00,CLR,,0.00,WeatherDisplay:10.37,2014-08-28 04:02:00,
2014-08-28 00:07:00,81.5,75.8,29.98,East,84,2.3,2.3,83,0.00,CLR,,0.00,WeatherDisplay:10.37,2014-08-28 04:07:00,
2014-08-28 00:12:00,81.7,76.0,29.98,ENE,76,4.0,4.0,83,0.00,CLR,,0.00,WeatherDisplay:10.37,2014-08-28 04:12:00,
2014-08-28 00:17:00,81.9,76.2,29.98,East,86,2.3,2.3,83,0.00,CLR,,0.00,WeatherDisplay:10.37,2014-08-28 04:17:00,
2014-08-28 00:22:00,82.0,76.3,29.98,East,100,0.0,0.0,83,0.00,CLR,,0.00,WeatherDisplay:10.37,2014-08-28 04:22:00,
2014-08-28 00:27:00,81.9,76.2,29.98,East,91,0.0,0.0,83,0.00,CLR,,0.00,WeatherDisplay:10.37,2014-08-28 04:27:00,
2014-08-28 00:32:00,81.8,76.1,29.98,ESE,111,0.0,0.0,83,0.00,CLR,,0.00,WeatherDisplay:10.37,2014-08-28 04:32:00,
2014-08-28 00:37:00,81.8,76.1,29.98,SE,128,0.0,0.0,83,0.00,CLR,,0.00,WeatherDisplay:10.37,2014-08-28 04:37:00,
2014-08-28 00:42:00,81.7,76.4,29.98,SE,128,0.0,0.0,84,0.00,CLR,,0.00,WeatherDisplay:10.37,2014-08-28 04:42:00,
2014-08-28 00:47:00,81.7,76.4,29.98,SE,128,0.0,0.0,84,0.00,CLR,,0.00,WeatherDisplay:10.37,2014-08-28 04:47:00,
2014-08-28 00:52:00,81.7,76.4,29.98,ESE,107,2.3,2.3,84,0.00,CLR,,0.00,WeatherDisplay:10.37,2014-08-28 04:52:00,
2014-08-28 00:57:00,81.8,76.5,29.97,ESE,122,2.3,2.3,84,0.00,CLR,,0.00,WeatherDisplay:10.37,2014-08-28 04:57:00,
2014-08-28 01:02:00,82.0,76.7,29.97,ESE,112,2.3,2.3,84,0.00,CLR,,0.00,WeatherDisplay:10.37,2014-08-28 05:02:00,
2014-08-28 01:07:00,82.1,76.8,29.97,East,101,2.3,2.3,84,0.00,CLR,,0.00,WeatherDisplay:10.37,2014-08-28 05:07:00,
2014-08-28 01:12:00,82.3,77.0,29.97,SE,144,3.5,3.5,84,0.00,CLR,,0.00,WeatherDisplay:10.37,2014-08-28 05:12:00,
2014-08-28 01:17:00,82.4,77.1,29.98,SE,144,5.0,5.0,84,0.00,CLR,,0.00,WeatherDisplay:10.37,2014-08-28 05:17:00,
2014-08-28 01:22:00,82.1,76.4,29.98,SSW,193,12.7,12.7,83,0.00,CLR,,0.00,WeatherDisplay:10.37,2014-08-28 05:22:00,
2014-08-28 01:27:00,81.4,76.1,29.98,SSE,150,15.0,15.0,84,0.00,CLR,,0.00,WeatherDisplay:10.37,2014-08-28 05:27:00,
2014-08-28 01:32:00,80.8,75.9,29.98,SSW,198,15.0,15.0,85,0.00,CLR,,0.00,WeatherDisplay:10.37,2014-08-28 05:32:00,
2014-08-28 01:37:00,80.2,76.0,29.98,SSE,159,11.5,11.5,87,0.00,CLR,,0.00,WeatherDisplay:10.37,2014-08-28 05:37:00,
2014-08-28 01:42:00,79.7,75.8,29.97,ESE,105,5.8,5.8,88,0.00,CLR,,0.00,WeatherDisplay:10.37,2014-08-28 05:42:00,
2014-08-28 01:47:00,79.3,75.8,29.97,ESE,106,10.4,10.4,89,0.00,CLR,,0.00,WeatherDisplay:10.37,2014-08-28 05:47:00,
2014-08-28 01:52:00,79.1,75.6,29.97,SE,142,8.1,8.1,89,0.00,CLR,,0.00,WeatherDisplay:10.37,2014-08-28 05:52:00,
2014-08-28 01:57:00,78.9,75.4,29.97,SSE,151,10.4,10.4,89,0.00,CLR,,0.00,WeatherDisplay:10.37,2014-08-28 05:57:00,
2014-08-28 02:02:00,78.7,74.8,29.96,SSE,147,8.1,8.1,88,0.00,CLR,,0.00,WeatherDisplay:10.37,2014-08-28 06:02:00,
2014-08-28 02:07:00,78.8,74.6,29.96,SSE,150,4.0,4.0,87,0.00,CLR,,0.00,WeatherDisplay:10.37,2014-08-28 06:07:00,
2014-08-28 02:12:00,78.9,74.7,29.96,SSE,155,5.8,5.8,87,0.00,CLR,,0.00,WeatherDisplay:10.37,2014-08-28 06:12:00,
2014-08-28 02:17:00,78.8,74.6,29.96,South,172,4.0,4.0,87,0.00,CLR,,0.00,WeatherDisplay:10.37,2014-08-28 06:17:00,
2014-08-28 02:22:00,78.8,74.6,29.96,SE,144,5.8,5.8,87,0.00,CLR,,0.00,WeatherDisplay:10.37,2014-08-28 06:22:00,
2014-08-28 02:27:00,78.8,74.6,29.96,ESE,122,1.1,1.1,87,0.00,CLR,,0.00,WeatherDisplay:10.37,2014-08-28 06:27:00,
2014-08-28 02:32:00,78.7,74.2,29.96,SSE,163,3.5,3.5,86,0.00,CLR,,0.00,WeatherDisplay:10.37,2014-08-28 06:32:00,
2014-08-28 02:37:00,78.8,74.3,29.95,SSW,211,2.3,2.3,86,0.00,CLR,,0.00,WeatherDisplay:10.37,2014-08-28 06:37:00,
2014-08-28 02:42:00,78.7,74.2,29.95,SSW,199,0.0,0.0,86,0.00,CLR,,0.00,WeatherDisplay:10.37,2014-08-28 06:42:00,
2014-08-28 02:47:00,78.6,74.1,29.95,SSE,159,1.1,1.1,86,0.00,CLR,,0.00,WeatherDisplay:10.37,2014-08-28 06:47:00,
2014-08-28 02:52:00,78.6,74.1,29.94,SSE,159,0.0,0.0,86,0.00,CLR,,0.00,WeatherDisplay:10.37,2014-08-28 06:52:00,
2014-08-28 02:57:00,78.5,74.0,29.94,SSE,159,0.0,0.0,86,0.00,CLR,,0.00,WeatherDisplay:10.37,2014-08-28 06:57:00,
2014-08-28 03:02:00,78.4,74.2,29.94,SSE,159,0.0,0.0,87,0.00,CLR,,0.00,WeatherDisplay:10.37,2014-08-28 07:02:00,
2014-08-28 03:07:00,78.2,74.0,29.94,SSE,159,0.0,0.0,87,0.00,CLR,,0.00,WeatherDisplay:10.37,2014-08-28 07:07:00,
2014-08-28 03:12:00,78.0,73.8,29.93,SSE,159,0.0,0.0,87,0.00,CLR,,0.00,WeatherDisplay:10.37,2014-08-28 07:12:00,
2014-08-28 03:25:00,77.8,74.3,29.93,WNW,287,2.0,0.0,89,0.00,CLR,,0.00,WeatherDisplay:10.37,2014-08-28 07:25:00,
2014-08-28 03:30:00,77.8,74.6,29.93,WNW,288,0.0,0.0,90,0.00,CLR,,0.00,WeatherDisplay:10.37,2014-08-28 07:30:00,
2014-08-28 03:35:00,77.8,74.6,29.93,WNW,287,0.0,0.0,90,0.00,CLR,,0.00,WeatherDisplay:10.37,2014-08-28 07:35:00,
2014-08-28 03:40:00,77.7,74.5,29.93,ENE,60,0.0,0.0,90,0.00,CLR,,0.00,WeatherDisplay:10.37,2014-08-28 07:40:00,
2014-08-28 03:45:00,77.5,74.3,29.93,ENE,61,0.0,0.0,90,0.00,CLR,,0.00,WeatherDisplay:10.37,2014-08-28 07:45:00,
2014-08-28 03:50:00,77.3,74.5,29.93,ENE,68,0.0,0.0,91,0.00,CLR,,0.00,WeatherDisplay:10.37,2014-08-28 07:50:00,
2014-08-28 03:55:00,77.2,74.4,29.93,ENE,68,0.0,0.0,91,0.00,CLR,,0.00,WeatherDisplay:10.37,2014-08-28 07:55:00,
2014-08-28 04:00:00,77.1,74.3,29.93,ENE,68,0.0,0.0,91,0.00,CLR,,0.00,WeatherDisplay:10.37,2014-08-28 08:00:00,
2014-08-28 04:05:00,77.1,74.3,29.94,ENE,68,0.0,0.0,91,0.00,CLR,,0.00,WeatherDisplay:10.37,2014-08-28 08:05:00,
2014-08-28 04:11:00,77.0,74.5,29.94,East,93,0.0,0.0,92,0.00,CLR,,0.00,WeatherDisplay:10.37,2014-08-28 08:11:00,
2014-08-28 04:16:00,77.0,74.5,29.94,East,92,0.0,0.0,92,0.00,CLR,,0.00,WeatherDisplay:10.37,2014-08-28 08:16:00,
2014-08-28 04:21:00,77.0,74.5,29.93,East,93,0.0,0.0,92,0.00,CLR,,0.00,WeatherDisplay:10.37,2014-08-28 08:21:00,
2014-08-28 04:26:00,77.0,74.5,29.93,East,85,0.0,0.0,92,0.00,CLR,,0.00,WeatherDisplay:10.37,2014-08-28 08:26:00,
2014-08-28 04:31:00,76.9,74.4,29.93,East,84,0.0,0.0,92,0.00,CLR,,0.00,WeatherDisplay:10.37,2014-08-28 08:31:00,
2014-08-28 04:36:00,76.9,74.4,29.93,East,85,0.0,0.0,92,0.00,CLR,,0.00,WeatherDisplay:10.37,2014-08-28 08:36:00,
2014-08-28 04:41:00,76.8,74.3,29.93,East,84,0.0,0.0,92,0.00,CLR,,0.00,WeatherDisplay:10.37,2014-08-28 08:41:00,
2014-08-28 04:46:00,76.8,74.3,29.93,East,84,0.0,0.0,92,0.00,CLR,,0.00,WeatherDisplay:10.37,2014-08-28 08:46:00,
2014-08-28 04:51:00,76.8,74.3,29.93,East,85,0.0,0.0,92,0.00,CLR,,0.00,WeatherDisplay:10.37,2014-08-28 08:51:00,
2014-08-28 04:56:00,76.8,74.3,29.93,East,85,0.0,0.0,92,0.00,CLR,,0.00,WeatherDisplay:10.37,2014-08-28 08:56:00,
2014-08-28 05:01:00,76.7,74.5,29.93,East,84,0.0,0.0,93,0.00,CLR,,0.00,WeatherDisplay:10.37,2014-08-28 09:01:00,
2014-08-28 05:06:00,76.6,74.4,29.94,East,85,0.0,0.0,93,0.00,CLR,,0.00,WeatherDisplay:10.37,2014-08-28 09:06:00,
2014-08-28 05:11:00,76.7,74.5,29.94,East,84,0.0,0.0,93,0.00,CLR,,0.00,WeatherDisplay:10.37,2014-08-28 09:11:00,
2014-08-28 05:16:00,76.7,74.5,29.94,East,85,0.0,0.0,93,0.00,CLR,,0.00,WeatherDisplay:10.37,2014-08-28 09:16:00,
2014-08-28 05:21:00,76.7,74.5,29.94,East,84,0.0,0.0,93,0.00,CLR,,0.00,WeatherDisplay:10.37,2014-08-28 09:21:00,
2014-08-28 05:26:00,76.6,74.4,29.94,East,85,0.0,0.0,93,0.00,CLR,,0.00,WeatherDisplay:10.37,2014-08-28 09:26:00,
2014-08-28 05:31:00,76.6,74.7,29.95,East,85,0.0,0.0,94,0.00,CLR,,0.00,WeatherDisplay:10.37,2014-08-28 09:31:00,